• Join FlightAware (Why Join?)
  • Login
  • US Flag 
12:29PM EST


 

Airport Tracker/Info


-or-


 

Live Flight TrackerFlight Track Log ✈ N6GD ✈ 20-Jul-2014 ✈ KMIA - KPIE

Flight Track Log - Related Links

Times and Time Zones

All times are in EDT time to prevent confusion due to time zone crossing. See the N6GD flight status page for this flight to view local times or setup timezone preferences in your user account.

Time Position Orientation Groundspeed Altitude Reporting Facility
EDT Latitude Longitude Course Direction KTS MPH feet Rate Location/Type
09:19PM 26.0206 -80.5328 314° West 230 265 9,500  Level Miami Center
09:20PM 26.0947 -80.6161 315° West 334 384 9,900 197 Climbing Miami Center
09:21PM 26.1647 -80.6931 315° West 353 406 9,900 98 Level Miami Center
09:22PM 26.2336 -80.7708 315° West 352 405 10,100 984 Climbing Miami Center
09:23PM 26.3139 -80.8425 321° Northwest 361 415 11,900 2,213 Climbing Miami Center
09:24PM 26.3947 -80.9261 316° Northwest 367 422 14,600 2,016 Climbing Miami Center
09:25PM 25.9748 -80.4926 314° West  Level FlightAware Approximate
09:25PM 26.3463 -80.8771 316° Northwest  Level FlightAware Approximate
09:25PM 26.4692 -81.0064 316° Northwest 373 429 16,000  Level Miami Center
09:26PM 26.5458 -81.0894 316° Northwest 403 464 16,000  Level Miami Center
09:27PM 26.6294 -81.1786 316° Northwest 391 450 16,000  Level Miami Center
09:28PM 26.7064 -81.2617 316° Northwest 390 449 16,000  Level Miami Center
09:29PM 26.7919 -81.3539 316° Northwest 393 452 16,000  Level Miami Center
09:30PM 26.8697 -81.4408 315° West 396 456 16,000  Level Miami Center
09:31PM 26.9433 -81.5286 313° West 394 453 16,000  Level Miami Center
09:33PM 27.0239 -81.6242 313° West 391 450 16,000  Level Miami Center
09:34PM 27.0878 -81.6997 314° West 395 455 16,000  Level Miami Center
09:35PM 27.1636 -81.7897 313° West 396 456 16,000 -384 Level Miami Center
09:36PM 27.2383 -81.8786 313° West 393 452 15,200 -1,150 Descending Miami Center
09:37PM 27.3236 -81.9803 313° West 368 423 13,700 -1,574 Descending Miami Center
09:38PM 27.3889 -82.0594 313° West 339 390 12,000 -1,306 Descending Miami Center
09:39PM 27.4469 -82.1283 314° West 310 357 11,000 -550 Descending Miami Center
09:40PM 27.4908 -82.2122 301° West 317 365 10,900 -200 Descending Miami Center
09:41PM 27.5272 -82.3011 295° West 312 359 10,600 -1,082 Descending Miami Center
09:42PM 27.5583 -82.3792 294° West 273 314 8,700 -1,967 Descending Miami Center
09:43PM 27.5889 -82.4536 295° West 264 304 6,600 -2,016 Descending Miami Center
09:44PM 27.6183 -82.5264 295° West 257 296 4,500 -1,248 Descending Miami Center
09:45PM 27.6508 -82.5939 299° West 248 285 4,000 -689 Descending Miami Center
09:46PM 27.7008 -82.6333 325° Northwest 223 257 3,100 -541 Descending Miami Center
09:47PM 27.7558 -82.6611 336° Northwest 217 250 2,900 -638 Descending Miami Center
09:48PM 27.8333 -82.6833 346° North 161 185 1,600 -945 Descending Tampa TRACON
09:49PM 27.8667 -82.6833 360° North 127 146 600 -556 Descending Tampa TRACON
09:51PM 27.9233 -82.6906 354° North 149 171 100 -313 Descending Miami Center
09:53PM 27.9100 -82.6875 180° South  Level Estimated
10:00PM 27.9100 -82.6875 180° South  Level Estimated